Time;durP1;ratioP1;P1;durP2;ratioP2;P2;SDS_P1;SDS_P2;PMS_P1;PMS_P2;Temp;Humidity;BMP_temperature;BMP_pressure;BME280_temperature;BME280_humidity;BME280_pressure;Samples;Min_cycle;Max_cycle;Signal;HPM_P1;HPM_P2
2023/07/12 00:01:02;;;;;;;3.65;2.63;;;19.50;99.90;;;;;;4901068;28;91413;-33
2023/07/12 00:03:29;;;;;;;2.45;2.17;;;19.50;99.90;;;;;;4900582;28;89602;-39
2023/07/12 00:05:55;;;;;;;2.97;2.78;;;19.50;99.90;;;;;;4900921;28;91032;-40
2023/07/12 00:08:30;;;;;;;3.53;2.53;;;19.50;99.90;;;;;;4888170;28;88506;-34
2023/07/12 00:10:57;;;;;;;2.88;2.50;;;19.40;99.90;;;;;;4900355;28;89459;-34
2023/07/12 00:13:24;;;;;;;2.87;2.17;;;19.30;99.90;;;;;;4901065;28;89285;-36
2023/07/12 00:15:51;;;;;;;2.63;2.42;;;19.30;99.90;;;;;;4900813;28;89762;-33
2023/07/12 00:18:19;;;;;;;3.42;3.13;;;19.20;99.90;;;;;;4901281;28;89249;-34
2023/07/12 00:20:46;;;;;;;3.80;2.80;;;19.20;99.90;;;;;;4899712;28;90211;-35
2023/07/12 00:23:14;;;;;;;3.50;2.95;;;19.30;99.90;;;;;;4901047;28;90652;-34
2023/07/12 00:25:41;;;;;;;4.22;2.40;;;19.20;99.90;;;;;;4900846;28;89347;-38
2023/07/12 00:28:25;;;;;;;2.75;2.55;;;19.30;99.90;;;;;;4900253;28;89086;-34
2023/07/12 00:30:53;;;;;;;3.63;3.33;;;19.30;99.90;;;;;;4900563;28;90547;-32
2023/07/12 00:33:19;;;;;;;2.97;2.78;;;19.20;99.90;;;;;;4899942;28;89008;-37
2023/07/12 00:35:45;;;;;;;3.38;3.08;;;19.20;99.90;;;;;;4900133;28;90064;-38
2023/07/12 00:38:20;;;;;;;3.40;2.40;;;19.30;99.90;;;;;;4901113;28;89924;-36
2023/07/12 00:41:16;;;;;;;4.00;2.70;;;19.20;99.90;;;;;;4889085;28;89679;-37
2023/07/12 00:43:46;;;;;;;3.75;2.78;;;19.20;99.90;;;;;;4899822;28;89581;-37
2023/07/12 00:46:30;;;;;;;3.05;2.72;;;19.10;99.90;;;;;;4899764;28;89515;-33
2023/07/12 00:48:57;;;;;;;3.80;3.47;;;19.10;99.90;;;;;;4890807;28;89051;-33
2023/07/12 00:51:25;;;;;;;3.50;3.17;;;19.20;99.90;;;;;;4899386;28;89876;-39
2023/07/12 00:53:51;;;;;;;4.22;2.80;;;19.10;99.90;;;;;;4899936;28;90884;-33
2023/07/12 00:56:16;;;;;;;2.88;2.67;;;19.10;99.90;;;;;;4899389;28;90586;-35
2023/07/12 00:58:45;;;;;;;3.60;3.15;;;19.00;99.90;;;;;;4900413;28;87953;-35
2023/07/12 01:01:13;;;;;;;4.20;3.80;;;19.00;99.90;;;;;;4898937;28;89557;-33
2023/07/12 01:03:42;;;;;;;4.32;2.75;;;18.90;99.90;;;;;;4900688;28;90015;-41
2023/07/12 01:06:10;;;;;;;3.60;3.30;;;18.90;99.90;;;;;;4899241;28;89419;-39
2023/07/12 01:08:41;;;;;;;4.68;3.08;;;18.90;99.90;;;;;;4900735;28;89065;-34
2023/07/12 01:11:12;;;;;;;4.28;3.85;;;18.90;99.90;;;;;;4900504;28;89596;-37
2023/07/12 01:13:42;;;;;;;4.20;3.50;;;18.70;99.90;;;;;;4899921;28;89513;-39
2023/07/12 01:16:09;;;;;;;3.88;3.25;;;18.70;99.90;;;;;;4899881;28;89351;-39
2023/07/12 01:18:34;;;;;;;3.78;3.42;;;18.70;99.90;;;;;;4900405;28;90315;-39
2023/07/12 01:21:08;;;;;;;4.80;3.67;;;18.70;99.90;;;;;;4899006;28;89681;-36
2023/07/12 01:23:34;;;;;;;4.38;3.90;;;18.60;99.90;;;;;;4900687;28;90031;-34
2023/07/12 01:26:34;;;;;;;5.55;3.83;;;18.60;99.90;;;;;;4899405;28;89466;-33
2023/07/12 01:29:03;;;;;;;4.38;3.85;;;18.50;99.90;;;;;;4877615;28;88712;-39
2023/07/12 01:31:30;;;;;;;5.32;4.35;;;18.40;99.90;;;;;;4901399;28;90195;-32
2023/07/12 01:33:56;;;;;;;6.32;4.10;;;18.40;99.90;;;;;;4917292;28;89490;-33
2023/07/12 01:36:22;;;;;;;3.95;3.63;;;18.40;99.90;;;;;;4903022;28;89586;-41
2023/07/12 01:38:51;;;;;;;4.45;4.03;;;18.40;99.90;;;;;;4903573;28;87692;-34
2023/07/12 01:41:17;;;;;;;5.13;4.30;;;18.40;99.90;;;;;;4902783;28;90407;-34
2023/07/12 01:43:43;;;;;;;4.95;3.70;;;18.30;99.90;;;;;;4902012;28;90662;-36
2023/07/12 01:46:09;;;;;;;4.32;3.63;;;18.30;99.90;;;;;;4903302;28;90381;-35
2023/07/12 01:48:35;;;;;;;4.35;3.88;;;18.30;99.90;;;;;;4902793;28;90058;-36
2023/07/12 01:51:01;;;;;;;3.60;3.30;;;18.30;99.90;;;;;;4901688;28;92141;-40
2023/07/12 01:53:28;;;;;;;4.82;4.18;;;18.30;99.90;;;;;;4899007;28;90689;-34
2023/07/12 01:55:54;;;;;;;4.18;3.70;;;18.30;99.90;;;;;;4893665;28;90044;-41
2023/07/12 01:58:21;;;;;;;4.85;3.67;;;18.20;99.90;;;;;;4902462;28;89562;-41
2023/07/12 02:00:47;;;;;;;5.18;3.78;;;18.20;99.90;;;;;;4903217;28;90145;-34
2023/07/12 02:03:12;;;;;;;4.90;3.22;;;18.20;99.90;;;;;;4902495;28;89388;-32
2023/07/12 02:05:38;;;;;;;5.18;3.58;;;18.20;99.90;;;;;;4903289;28;90188;-36
2023/07/12 02:08:04;;;;;;;3.65;3.38;;;18.20;99.90;;;;;;4901605;28;90126;-34
2023/07/12 02:10:29;;;;;;;4.05;3.70;;;18.10;99.90;;;;;;4902107;28;90074;-38
2023/07/12 02:12:55;;;;;;;4.00;3.63;;;18.20;99.90;;;;;;4902377;28;90383;-36
2023/07/12 02:15:21;;;;;;;4.15;3.65;;;18.10;99.90;;;;;;4902087;28;90256;-37
2023/07/12 02:17:47;;;;;;;4.82;3.90;;;18.20;99.90;;;;;;4902645;28;88794;-39
2023/07/12 02:20:13;;;;;;;4.00;3.67;;;18.20;99.90;;;;;;4902159;28;89752;-35
2023/07/12 02:22:43;;;;;;;4.07;3.78;;;18.20;99.90;;;;;;4901908;28;88613;-40
2023/07/12 02:25:10;;;;;;;4.45;4.13;;;18.10;99.90;;;;;;4902436;28;89255;-36
2023/07/12 02:27:36;;;;;;;4.00;3.60;;;18.00;99.90;;;;;;4903117;28;89921;-35
2023/07/12 02:30:04;;;;;;;6.70;4.30;;;17.90;99.90;;;;;;4902066;28;88396;-39
2023/07/12 02:32:30;;;;;;;4.88;4.45;;;18.00;99.90;;;;;;4899738;28;90825;-37
2023/07/12 02:34:55;;;;;;;6.43;4.43;;;17.90;99.90;;;;;;4902145;28;90561;-35
2023/07/12 02:37:21;;;;;;;5.90;3.60;;;18.00;99.90;;;;;;4901793;28;88861;-36
2023/07/12 02:39:47;;;;;;;6.45;4.35;;;18.00;99.90;;;;;;4902318;28;90408;-35
2023/07/12 02:42:12;;;;;;;5.65;3.83;;;17.90;99.90;;;;;;4900739;28;89241;-32
2023/07/12 02:44:39;;;;;;;8.23;4.20;;;17.90;99.90;;;;;;4902176;28;89518;-41
2023/07/12 02:47:10;;;;;;;5.75;4.50;;;17.80;99.90;;;;;;4902821;28;89860;-35
2023/07/12 02:49:37;;;;;;;5.93;4.35;;;17.80;99.90;;;;;;4902547;28;90637;-35
2023/07/12 02:52:04;;;;;;;10.50;4.30;;;17.80;99.90;;;;;;4902595;28;89810;-33
2023/07/12 02:54:31;;;;;;;6.45;4.43;;;17.80;99.90;;;;;;4900952;28;90060;-39
2023/07/12 02:56:57;;;;;;;5.93;4.28;;;17.80;99.90;;;;;;4901688;28;89360;-37
2023/07/12 02:59:23;;;;;;;5.78;4.57;;;17.70;99.90;;;;;;4902278;28;89060;-35
2023/07/12 03:01:48;;;;;;;5.90;4.75;;;17.80;99.90;;;;;;4901036;28;90016;-33
2023/07/12 03:04:14;;;;;;;6.25;5.10;;;17.80;99.90;;;;;;4902283;28;89647;-36
2023/07/12 03:06:40;;;;;;;4.75;3.70;;;17.80;99.90;;;;;;4901750;28;89117;-34
2023/07/12 03:09:06;;;;;;;6.82;4.90;;;17.80;99.90;;;;;;4901884;28;89501;-37
2023/07/12 03:11:32;;;;;;;12.13;5.68;;;17.80;99.90;;;;;;4902298;28;88826;-33
2023/07/12 03:13:57;;;;;;;4.72;4.22;;;17.80;99.90;;;;;;4902259;28;89493;-32
2023/07/12 03:16:23;;;;;;;6.30;4.50;;;17.70;99.90;;;;;;4902101;28;89473;-40
2023/07/12 03:18:49;;;;;;;7.70;5.65;;;17.70;99.90;;;;;;4901686;28;90182;-39
2023/07/12 03:21:15;;;;;;;5.90;4.65;;;17.80;99.90;;;;;;4901107;28;90915;-38
2023/07/12 03:23:41;;;;;;;11.32;4.57;;;17.80;99.90;;;;;;4901543;28;92260;-35
2023/07/12 03:26:07;;;;;;;10.32;3.97;;;17.80;99.90;;;;;;4901122;28;89349;-34
2023/07/12 03:28:32;;;;;;;6.03;4.95;;;17.90;99.90;;;;;;4902248;28;90370;-34
2023/07/12 03:30:59;;;;;;;5.45;4.82;;;17.90;99.90;;;;;;4900631;28;89624;-36
2023/07/12 03:33:25;;;;;;;5.28;4.78;;;17.80;99.90;;;;;;4900731;28;89503;-43
2023/07/12 03:35:51;;;;;;;6.45;5.85;;;17.80;99.90;;;;;;4902106;28;89109;-34
2023/07/12 03:38:17;;;;;;;9.35;5.00;;;17.70;99.90;;;;;;4901304;28;90543;-37
2023/07/12 03:40:47;;;;;;;7.03;4.75;;;17.70;99.90;;;;;;4901947;28;89341;-33
2023/07/12 03:43:13;;;;;;;7.15;4.95;;;17.60;99.90;;;;;;4901495;28;89714;-34
2023/07/12 03:45:39;;;;;;;7.30;5.10;;;17.60;99.90;;;;;;4901532;28;89115;-37
2023/07/12 03:48:04;;;;;;;6.32;5.32;;;17.60;99.90;;;;;;4900883;28;90432;-34
2023/07/12 03:50:30;;;;;;;7.93;4.88;;;17.70;99.90;;;;;;4901493;28;89651;-35
2023/07/12 03:52:56;;;;;;;7.50;5.53;;;17.70;99.90;;;;;;4900888;28;90453;-38
2023/07/12 03:55:21;;;;;;;5.07;4.60;;;17.70;99.90;;;;;;4901176;28;88454;-37
2023/07/12 03:57:47;;;;;;;6.70;4.43;;;17.60;99.90;;;;;;4901278;28;91007;-35
2023/07/12 04:00:13;;;;;;;9.85;4.57;;;17.60;99.90;;;;;;4900356;28;89573;-36
2023/07/12 04:02:40;;;;;;;10.40;6.18;;;17.50;99.90;;;;;;4900980;28;90429;-35
2023/07/12 04:05:06;;;;;;;8.13;4.63;;;17.50;99.90;;;;;;4901040;28;89371;-40
2023/07/12 04:07:32;;;;;;;8.05;5.22;;;17.50;99.90;;;;;;4899992;28;89569;-36
2023/07/12 04:09:57;;;;;;;5.57;4.60;;;17.40;99.90;;;;;;4898995;28;92397;-38
2023/07/12 04:12:23;;;;;;;7.68;5.38;;;17.40;99.90;;;;;;4900517;28;89418;-35
2023/07/12 04:14:49;;;;;;;12.07;5.55;;;17.40;99.90;;;;;;4901344;28;89374;-39
2023/07/12 04:17:15;;;;;;;8.15;5.60;;;17.40;99.90;;;;;;4901122;28;88437;-37
2023/07/12 04:19:41;;;;;;;10.77;5.43;;;17.40;99.90;;;;;;4900860;28;90255;-42
2023/07/12 04:22:07;;;;;;;10.95;6.10;;;17.40;99.90;;;;;;4901015;28;91011;-34
2023/07/12 04:24:32;;;;;;;10.20;6.22;;;17.40;99.90;;;;;;4900860;28;88984;-34
2023/07/12 04:26:59;;;;;;;14.98;5.60;;;17.30;99.90;;;;;;4901006;28;90471;-40
2023/07/12 04:29:27;;;;;;;9.70;5.88;;;17.20;99.90;;;;;;4900140;28;89526;-34
2023/07/12 04:31:53;;;;;;;8.27;5.32;;;17.30;99.90;;;;;;4899986;28;88652;-41
2023/07/12 04:34:19;;;;;;;8.38;4.88;;;17.30;99.90;;;;;;4900495;28;88255;-35
2023/07/12 04:36:44;;;;;;;9.77;5.13;;;17.20;99.90;;;;;;4900560;28;92277;-38
2023/07/12 04:39:10;;;;;;;9.02;5.22;;;17.30;99.90;;;;;;4900778;28;89630;-36
2023/07/12 04:41:36;;;;;;;7.25;5.03;;;17.20;99.90;;;;;;4901126;28;89171;-38
2023/07/12 04:44:02;;;;;;;6.95;5.25;;;17.20;99.90;;;;;;4900548;28;90163;-36
2023/07/12 04:46:28;;;;;;;13.10;4.70;;;17.20;99.90;;;;;;4900613;28;88978;-36
2023/07/12 04:48:54;;;;;;;7.78;4.55;;;17.20;99.90;;;;;;4904785;28;90977;-37
2023/07/12 04:51:20;;;;;;;7.43;4.78;;;17.20;99.90;;;;;;4900386;28;89592;-37
2023/07/12 04:53:49;;;;;;;6.90;5.13;;;17.20;99.90;;;;;;4900936;28;87534;-38
2023/07/12 04:56:15;;;;;;;8.88;4.45;;;17.20;99.90;;;;;;4900323;28;90154;-35
2023/07/12 04:58:42;;;;;;;6.68;4.80;;;17.20;99.90;;;;;;4899619;28;91030;-33
2023/07/12 05:01:09;;;;;;;6.85;4.50;;;17.20;99.90;;;;;;4899618;28;89419;-40
2023/07/12 05:03:35;;;;;;;7.05;4.32;;;17.20;99.90;;;;;;4899556;28;88876;-33
2023/07/12 05:06:01;;;;;;;10.00;5.25;;;17.20;99.90;;;;;;4899838;28;90432;-39
2023/07/12 05:08:27;;;;;;;7.05;4.50;;;17.10;99.90;;;;;;4901910;28;89835;-35
2023/07/12 05:10:58;;;;;;;6.95;4.63;;;17.10;99.90;;;;;;4901707;28;90249;-36
2023/07/12 05:13:23;;;;;;;7.50;5.28;;;17.10;99.90;;;;;;4902503;28;89194;-36
2023/07/12 05:15:51;;;;;;;11.38;5.30;;;17.10;99.90;;;;;;4901125;28;90273;-34
2023/07/12 05:18:17;;;;;;;9.50;4.73;;;17.10;99.90;;;;;;4902176;28;89259;-42
2023/07/12 05:20:42;;;;;;;8.90;5.13;;;17.00;99.90;;;;;;4901589;28;91203;-35
2023/07/12 05:23:08;;;;;;;9.10;4.80;;;17.10;99.90;;;;;;4904181;28;89477;-35
2023/07/12 05:25:34;;;;;;;11.65;5.32;;;17.10;99.90;;;;;;4901930;28;89455;-35
2023/07/12 05:28:02;;;;;;;9.48;6.10;;;17.10;99.90;;;;;;4901518;28;90138;-42
2023/07/12 05:30:31;;;;;;;8.00;5.13;;;17.20;99.90;;;;;;4901736;28;89500;-35
2023/07/12 05:32:57;;;;;;;10.07;5.15;;;17.20;99.90;;;;;;4901914;28;89350;-34
2023/07/12 05:35:23;;;;;;;7.72;5.13;;;17.20;99.90;;;;;;4901844;28;90398;-39
2023/07/12 05:37:50;;;;;;;10.25;5.15;;;17.20;99.90;;;;;;4901471;28;90743;-40
2023/07/12 05:40:16;;;;;;;9.13;6.13;;;17.30;99.90;;;;;;4902311;28;89194;-36
2023/07/12 19:42:03;;;;;;;2.00;1.70;;;18.70;99.90;;;;;;4956501;28;89549;-36
2023/07/12 19:44:29;;;;;;;2.17;1.80;;;18.60;99.90;;;;;;4941316;28;89529;-37
2023/07/12 19:46:56;;;;;;;4.00;1.67;;;18.50;99.90;;;;;;4939335;28;90201;-35
2023/07/12 19:49:22;;;;;;;9.38;3.78;;;18.50;99.90;;;;;;4940799;28;89650;-37
2023/07/12 19:51:49;;;;;;;5.75;2.05;;;18.40;99.90;;;;;;4939406;28;89774;-33
2023/07/12 19:54:17;;;;;;;3.63;1.60;;;18.40;99.90;;;;;;4939067;28;90543;-38
2023/07/12 19:56:44;;;;;;;2.70;2.08;;;18.30;99.90;;;;;;4940024;28;89826;-38
2023/07/12 19:59:10;;;;;;;2.97;2.05;;;18.30;99.90;;;;;;4939253;28;92582;-34
2023/07/12 20:01:36;;;;;;;2.97;2.20;;;18.30;99.90;;;;;;4972236;22;90480;-43
2023/07/12 20:04:06;;;;;;;2.78;1.83;;;18.20;99.90;;;;;;4951148;28;89622;-33
2023/07/12 20:06:34;;;;;;;1.95;1.85;;;18.10;99.90;;;;;;4958962;28;89574;-38
2023/07/12 20:09:00;;;;;;;2.03;1.92;;;18.10;99.90;;;;;;4947786;28;90152;-34
2023/07/12 20:11:27;;;;;;;2.35;2.13;;;18.10;99.90;;;;;;4950463;28;89995;-36
2023/07/12 20:13:55;;;;;;;4.05;2.53;;;18.00;99.90;;;;;;4944903;28;87699;-34
2023/07/12 20:16:23;;;;;;;4.03;2.20;;;18.00;99.90;;;;;;4950174;28;90968;-32
2023/07/12 20:18:49;;;;;;;4.85;1.88;;;18.00;99.90;;;;;;4945268;28;90896;-35
2023/07/12 20:21:16;;;;;;;3.90;2.53;;;17.90;99.90;;;;;;4949859;28;89492;-37
2023/07/12 20:23:42;;;;;;;3.85;2.28;;;17.80;99.90;;;;;;4945711;28;90411;-35
2023/07/12 20:26:09;;;;;;;5.28;1.90;;;17.80;99.90;;;;;;4950680;28;89174;-34
2023/07/12 20:28:39;;;;;;;3.17;2.87;;;17.70;99.90;;;;;;4944907;28;90244;-33
2023/07/12 20:31:11;;;;;;;2.33;2.13;;;17.70;99.90;;;;;;4944253;28;89411;-37
2023/07/12 20:33:38;;;;;;;2.83;2.25;;;17.60;99.90;;;;;;4945412;28;89212;-35
2023/07/12 20:36:05;;;;;;;2.15;1.85;;;17.60;99.90;;;;;;4947438;28;89898;-40
2023/07/12 20:38:31;;;;;;;3.13;2.83;;;17.50;99.90;;;;;;4943216;28;89660;-41
2023/07/12 20:40:58;;;;;;;4.38;2.00;;;17.50;99.90;;;;;;4948079;28;89740;-35
2023/07/12 20:43:29;;;;;;;4.10;2.45;;;17.50;99.90;;;;;;4944735;28;89336;-36
2023/07/12 20:45:58;;;;;;;5.68;2.30;;;17.50;99.90;;;;;;4946854;28;91278;-34
2023/07/12 20:48:43;;;;;;;2.90;2.50;;;17.50;99.90;;;;;;4945332;28;90705;-39
2023/07/12 20:51:16;;;;;;;5.72;3.28;;;17.40;99.90;;;;;;4935263;28;90052;-41
2023/07/12 20:53:44;;;;;;;3.90;2.42;;;17.30;99.90;;;;;;4947829;28;89089;-34
2023/07/12 20:56:14;;;;;;;4.22;2.50;;;17.30;99.90;;;;;;4943832;28;91020;-33
2023/07/12 20:58:40;;;;;;;4.18;2.78;;;17.30;99.90;;;;;;4948374;28;89106;-40
2023/07/12 21:01:11;;;;;;;2.45;2.20;;;17.30;99.90;;;;;;4944608;28;89809;-36
2023/07/12 21:03:37;;;;;;;5.10;2.80;;;17.30;99.90;;;;;;4939852;28;88510;-33
2023/07/12 21:06:05;;;;;;;5.78;2.47;;;17.20;99.90;;;;;;4945629;28;89691;-36
2023/07/12 21:08:32;;;;;;;7.47;2.40;;;17.20;99.90;;;;;;4942556;28;89870;-34
2023/07/12 21:10:59;;;;;;;3.40;3.05;;;17.20;99.90;;;;;;4939211;28;90272;-33
2023/07/12 21:13:26;;;;;;;7.82;2.88;;;17.20;99.90;;;;;;4946858;28;89428;-42
2023/07/12 21:15:59;;;;;;;3.50;2.67;;;17.10;99.90;;;;;;4945508;28;91194;-34
2023/07/12 21:18:24;;;;;;;6.15;2.60;;;17.10;99.90;;;;;;4949582;28;89742;-40
2023/07/12 21:20:50;;;;;;;5.95;3.30;;;17.00;99.90;;;;;;4939790;28;89822;-34
2023/07/12 21:23:16;;;;;;;3.92;2.10;;;17.00;99.90;;;;;;4939650;28;88727;-36
2023/07/12 21:25:43;;;;;;;2.97;2.28;;;17.00;99.90;;;;;;4939306;28;91043;-35
2023/07/12 21:28:11;;;;;;;5.55;2.85;;;17.00;99.90;;;;;;4939624;28;90098;-36
2023/07/12 21:30:40;;;;;;;2.55;2.35;;;16.90;99.90;;;;;;4939267;28;90046;-32
2023/07/12 21:33:06;;;;;;;3.25;2.90;;;16.90;99.90;;;;;;4939093;28;89055;-39
2023/07/12 21:35:32;;;;;;;2.72;2.53;;;16.80;99.90;;;;;;4939634;28;90429;-35
2023/07/12 21:37:58;;;;;;;5.95;2.72;;;16.80;99.90;;;;;;4938705;28;91443;-36
2023/07/12 21:40:23;;;;;;;3.40;2.65;;;16.80;99.90;;;;;;4947592;28;90609;-36
2023/07/12 21:42:49;;;;;;;3.38;3.08;;;16.70;99.90;;;;;;4950158;28;89788;-32
2023/07/12 21:45:15;;;;;;;7.93;3.17;;;16.70;99.90;;;;;;4941068;28;90312;-34
2023/07/12 21:47:41;;;;;;;2.22;2.13;;;16.70;99.90;;;;;;4949949;28;90579;-35
2023/07/12 21:50:07;;;;;;;3.00;2.72;;;16.70;99.90;;;;;;4941819;28;90759;-37
2023/07/12 21:52:33;;;;;;;4.88;2.83;;;16.60;99.90;;;;;;4942651;28;89054;-32
2023/07/12 21:54:59;;;;;;;4.45;2.92;;;16.60;99.90;;;;;;4943068;28;90199;-32
2023/07/12 21:57:25;;;;;;;3.95;3.17;;;16.60;99.90;;;;;;4942273;28;89647;-34
2023/07/12 21:59:52;;;;;;;4.20;3.08;;;16.60;99.90;;;;;;4946636;28;89186;-34
2023/07/12 22:02:22;;;;;;;3.67;3.17;;;16.60;99.90;;;;;;4961125;28;89987;-35
2023/07/12 22:04:48;;;;;;;3.30;2.95;;;16.50;99.90;;;;;;4956400;28;90740;-35
2023/07/12 22:07:15;;;;;;;8.23;4.20;;;16.50;99.90;;;;;;4941117;28;89356;-34
2023/07/12 22:09:42;;;;;;;3.65;3.35;;;16.50;99.90;;;;;;4944311;28;90835;-35
2023/07/12 22:12:08;;;;;;;3.92;3.15;;;16.50;99.90;;;;;;4961347;28;88123;-41
2023/07/12 22:14:36;;;;;;;3.85;3.42;;;16.40;99.90;;;;;;4959871;28;90189;-33
2023/07/12 22:17:02;;;;;;;4.83;4.10;;;16.40;99.90;;;;;;4960776;28;89721;-36
2023/07/12 22:19:28;;;;;;;4.90;2.92;;;16.30;99.90;;;;;;4959701;28;89968;-35
2023/07/12 22:22:03;;;;;;;6.55;3.35;;;16.30;99.90;;;;;;4961428;28;89906;-33
2023/07/12 22:24:30;;;;;;;6.75;3.10;;;16.30;99.90;;;;;;4960337;28;90763;-42
2023/07/12 22:26:56;;;;;;;8.70;3.17;;;16.20;99.90;;;;;;4948987;28;90614;-35
2023/07/12 22:29:21;;;;;;;4.95;3.40;;;16.20;99.90;;;;;;4959153;28;90149;-32
2023/07/12 22:31:47;;;;;;;4.85;3.72;;;16.20;99.90;;;;;;4961376;28;89295;-41
2023/07/12 22:34:14;;;;;;;6.55;4.68;;;16.20;99.90;;;;;;4959752;28;90291;-35
2023/07/12 22:36:40;;;;;;;7.72;3.85;;;16.20;99.90;;;;;;4960424;28;89656;-34
2023/07/12 22:39:06;;;;;;;4.00;3.17;;;16.20;99.90;;;;;;4955053;28;89985;-38
2023/07/12 22:41:32;;;;;;;4.90;3.92;;;16.10;99.90;;;;;;4953111;28;88449;-37
2023/07/12 22:43:58;;;;;;;4.78;4.38;;;16.20;99.90;;;;;;4960511;28;90944;-35
2023/07/12 22:46:24;;;;;;;7.97;4.13;;;16.20;99.90;;;;;;4960272;28;89927;-33
2023/07/12 22:48:50;;;;;;;7.78;4.35;;;16.10;99.90;;;;;;4953956;28;89686;-33
2023/07/12 22:51:16;;;;;;;7.03;3.95;;;16.10;99.90;;;;;;4954004;28;89965;-36
2023/07/12 22:53:42;;;;;;;8.82;3.85;;;16.10;99.90;;;;;;4958976;28;90434;-37
2023/07/12 22:56:17;;;;;;;6.78;3.40;;;16.10;99.90;;;;;;4959901;28;89834;-36
2023/07/12 22:58:44;;;;;;;6.85;3.60;;;16.10;99.90;;;;;;4929148;28;89715;-34
2023/07/12 23:01:09;;;;;;;3.65;3.20;;;16.10;99.90;;;;;;4940745;28;89295;-40
2023/07/12 23:03:35;;;;;;;3.83;3.03;;;16.10;99.90;;;;;;4941264;28;90092;-34
2023/07/12 23:06:02;;;;;;;6.72;4.03;;;16.10;99.90;;;;;;4941394;28;91179;-35
2023/07/12 23:08:29;;;;;;;3.63;2.70;;;16.10;99.90;;;;;;4940434;28;89470;-37
2023/07/12 23:10:56;;;;;;;4.03;2.47;;;16.10;99.90;;;;;;4942124;28;89616;-34
2023/07/12 23:13:25;;;;;;;5.25;3.45;;;16.10;99.90;;;;;;4960589;28;91070;-33
2023/07/12 23:15:52;;;;;;;4.70;3.00;;;16.00;99.90;;;;;;4959192;28;91291;-33
2023/07/12 23:18:22;;;;;;;3.13;2.83;;;16.00;99.90;;;;;;4959289;28;90523;-32
2023/07/12 23:20:49;;;;;;;3.85;3.15;;;16.00;99.90;;;;;;4959017;28;90236;-39
2023/07/12 23:23:19;;;;;;;4.35;2.80;;;16.00;99.90;;;;;;4959601;28;90385;-41
2023/07/12 23:25:46;;;;;;;6.65;3.08;;;15.90;99.90;;;;;;4959139;28;90874;-41
2023/07/12 23:28:12;;;;;;;3.55;2.72;;;15.90;99.90;;;;;;4959581;28;88330;-36
2023/07/12 23:30:38;;;;;;;5.38;2.78;;;15.90;99.90;;;;;;4958552;28;88168;-33
2023/07/12 23:33:05;;;;;;;5.40;2.78;;;15.80;99.90;;;;;;4959724;28;90847;-36
2023/07/12 23:35:31;;;;;;;3.78;2.70;;;15.80;99.90;;;;;;4958934;28;89067;-36
2023/07/12 23:37:57;;;;;;;6.97;3.15;;;15.80;99.90;;;;;;4959354;28;89954;-38
2023/07/12 23:40:23;;;;;;;6.18;3.35;;;15.80;99.90;;;;;;4957580;28;90562;-36
2023/07/12 23:42:55;;;;;;;5.22;3.17;;;15.80;99.90;;;;;;4959579;28;89858;-33
2023/07/12 23:45:22;;;;;;;7.15;3.58;;;15.80;99.90;;;;;;4957836;28;89676;-39
2023/07/12 23:47:48;;;;;;;6.85;3.85;;;15.80;99.90;;;;;;4959733;28;89681;-37
2023/07/12 23:50:14;;;;;;;15.57;3.25;;;15.80;99.90;;;;;;4952270;28;87741;-33
2023/07/12 23:52:40;;;;;;;6.20;3.28;;;15.80;99.90;;;;;;4950786;28;91248;-35
2023/07/12 23:55:05;;;;;;;3.72;2.95;;;15.70;99.90;;;;;;4956854;28;89640;-32
2023/07/12 23:57:31;;;;;;;7.75;3.15;;;15.70;99.90;;;;;;4959197;28;90108;-40
2023/07/12 23:59:57;;;;;;;7.18;2.83;;;15.70;99.90;;;;;;4957904;28;89582;-33
